Data for 09/11/2013

Time Sea-Level Adjusted Pressure Absolute Pressure Temperature Relative Humidity Dew Point   
(mb) (inHg) (mb) (inHg) (C) (F) (%) (C) (F)
00:05 1024 30.24 853 25.19 14.4 57.9 47 3.2 37.8
00:10 1024 30.24 853 25.19 14.4 58 46 3.2 37.8
00:15 1024 30.24 853 25.19 14.5 58 47 3.3 38
00:20 1024 30.24 853 25.19 14.3 57.7 47 3.1 37.7
00:25 1024 30.24 853 25.19 14.4 57.9 45 2.8 37.1
00:30 1024 30.24 853 25.19 14.8 58.7 45 3 37.4
00:35 1024 30.24 853 25.19 14.7 58.4 46 3.2 37.7
00:40 1024 30.24 853 25.19 14.6 58.3 45 3 37.4
00:45 1024 30.24 853 25.19 14.4 57.9 49 3.8 38.8
00:50 1024 30.24 853 25.19 13.7 56.7 50 3.7 38.6
00:55 1024 30.24 853 25.19 13.6 56.4 50 3.3 38
01:00 1024 30.24 853 25.19 13.7 56.6 50 3.6 38.4
01:05 1024 30.24 853 25.19 13.6 56.5 49 3 37.5
01:10 1024 30.24 853 25.19 13.6 56.4 50 3.4 38.2
01:15 1024 30.24 853 25.19 13.7 56.6 50 3.4 38.2
01:20 1024 30.24 853 25.19 13.8 56.9 49 3.3 38
01:25 1024 30.24 853 25.19 13.9 56.9 49 3.5 38.3
01:30 1024 30.24 853 25.19 13.8 56.9 48 3 37.4
01:35 1024 30.24 853 25.19 13.6 56.6 50 3.6 38.5
01:40 1024 30.24 853 25.19 13.2 55.8 51 3.3 38
01:45 1024 30.24 853 25.19 13.1 55.7 52 3.7 38.6
01:50 1024 30.24 853 25.19 13.2 55.7 51 3.2 37.8
01:55 1024 30.24 853 25.19 13.3 55.9 51 3.3 37.9
02:00 1024 30.24 853 25.19 13.2 55.8 52 3.6 38.4
02:05 1024 30.24 853 25.19 13.1 55.5 52 3.6 38.4
02:10 1024 30.24 853 25.19 13 55.4 53 3.6 38.5
02:15 1024 30.24 853 25.19 12.9 55.3 53 3.7 38.6
02:20 1024 30.24 853 25.19 12.7 54.9 54 3.8 38.8
02:25 1024 30.24 853 25.19 12.8 55 51 3 37.5
02:30 1024 30.24 853 25.19 13.2 55.8 53 3.9 38.9
02:35 1024 30.24 853 25.19 12.7 54.9 52 3.3 38
02:40 1024 30.24 853 25.19 12.5 54.5 54 3.4 38.1
02:45 1024 30.24 853 25.19 12.3 54.2 52 2.9 37.2
02:50 1024 30.24 853 25.19 12.1 53.8 55 3.5 38.3
02:55 1024 30.24 853 25.19 11.7 53 54 2.8 37
03:00 1024 30.24 853 25.19 11.3 52.4 58 3.3 37.9
03:05 1024 30.24 853 25.19 11.2 52.2 55 2.6 36.7
03:10 1024 30.24 853 25.19 11.7 53.1 55 2.9 37.2
03:15 1024 30.24 853 25.19 11.7 53.1 54 2.9 37.1
03:20 1024 30.24 853 25.19 12 53.5 53 2.8 37.1
03:25 1024 30.24 853 25.19 12 53.5 53 2.8 37
03:30 1024 30.24 854 25.22 11.8 53.3 56 3.3 37.9
03:35 1024 30.24 854 25.22 11.5 52.6 57 3.2 37.7
03:40 1024 30.24 854 25.22 11.5 52.7 55 2.9 37.2
03:45 1024 30.24 854 25.22 11.5 52.7 56 3.1 37.6
03:50 1024 30.24 854 25.22 11.5 52.7 53 2.4 36.3
03:55 1025 30.27 854 25.22 12.3 54.2 53 3 37.5
04:00 1025 30.27 854 25.22 12 53.5 55 3.3 38
04:05 1025 30.27 854 25.22 11.5 52.8 57 3.4 38.1
04:10 1025 30.27 854 25.22 11.2 52.2 58 3.3 38
04:15 1025 30.27 854 25.22 11 51.8 59 3.3 37.9
04:20 1025 30.27 854 25.22 11 51.7 58 3 37.5
04:25 1025 30.27 854 25.22 11.2 52.2 57 3.2 37.7
04:30 1025 30.27 854 25.22 11.2 52.2 57 3.1 37.7
04:35 1025 30.27 854 25.22 11.3 52.4 57 3.2 37.8
04:40 1025 30.27 854 25.22 11.4 52.5 57 3.3 37.9
04:45 1025 30.27 854 25.22 11.4 52.5 57 3.3 37.9
04:50 1025 30.27 854 25.22 11.2 52.2 59 3.5 38.2
04:55 1025 30.27 854 25.22 11.2 52.2 58 3.3 38
05:00 1025 30.27 854 25.22 11.2 52.2 57 3 37.4
05:05 1025 30.27 854 25.22 11.6 52.9 55 3 37.3
05:10 1025 30.27 854 25.22 12.1 53.9 53 2.9 37.2
05:15 1025 30.27 854 25.22 12.2 54 53 2.9 37.3
05:20 1025 30.27 854 25.22 12.3 54.2 53 3 37.4
05:25 1025 30.27 854 25.22 12.3 54.1 55 3.6 38.6
05:30 1025 30.27 854 25.22 11.6 52.9 57 3.5 38.2
05:35 1025 30.27 854 25.22 11.2 52.1 60 3.8 38.8
05:40 1025 30.27 854 25.22 10.9 51.5 59 3.2 37.7
05:45 1025 30.27 854 25.22 11.2 52.1 57 3 37.5
05:50 1025 30.27 854 25.22 11.8 53.3 55 3.1 37.6
05:55 1025 30.27 854 25.22 12.2 53.9 55 3.4 38.2
06:00 1025 30.27 854 25.22 11.9 53.4 56 3.6 38.4
06:05 1025 30.27 854 25.22 11.9 53.3 56 3.3 38
06:10 1025 30.27 855 25.25 11.6 52.9 57 3.4 38.1
06:15 1025 30.27 855 25.25 11.5 52.7 59 3.8 38.8
06:20 1025 30.27 855 25.25 11.1 52 60 3.7 38.7
06:25 1026 30.3 855 25.25 11 51.8 61 3.7 38.7
06:30 1026 30.3 855 25.25 11 51.9 61 3.9 38.9
06:35 1026 30.3 855 25.25 11.1 52.1 60 3.8 38.8
06:40 1026 30.3 855 25.25 11.4 52.5 59 3.8 38.8
06:45 1026 30.3 855 25.25 11.5 52.8 60 4.1 39.3
06:50 1026 30.3 855 25.25 11.5 52.7 60 4.1 39.4
06:55 1026 30.3 855 25.25 11.6 52.9 60 4.1 39.4
07:00 1026 30.3 855 25.25 11.8 53.2 59 4 39.2
07:05 1026 30.3 855 25.25 12.2 53.9 58 4.1 39.5
07:10 1026 30.3 855 25.25 12.7 54.8 56 4.1 39.5
07:15 1026 30.3 855 25.25 12.8 55.1 56 4.2 39.6
07:20 1026 30.3 855 25.25 13.5 56.4 53 4.3 39.7
07:25 1026 30.3 855 25.25 14.6 58.2 51 4.6 40.2
07:30 1026 30.3 855 25.25 14.9 58.8 52 5.1 41.2
07:35 1026 30.3 855 25.25 14.8 58.7 52 5.3 41.5
07:40 1026 30.3 855 25.25 14.8 58.7 52 5 41.1
07:45 1026 30.3 855 25.25 15.3 59.6 52 5.5 41.9
07:50 1026 30.3 855 25.25 15.9 60.6 49 5.3 41.6
07:55 1026 30.3 855 25.25 16.2 61.2 47 5.1 41.2
08:00 1026 30.3 855 25.25 16.4 61.4 47 5 41
08:05 1026 30.3 855 25.25 16.8 62.2 46 5.1 41.2
08:10 1026 30.3 855 25.25 17.3 63.2 45 5.4 41.6
08:15 1026 30.3 855 25.25 17.4 63.3 45 5.5 41.9
08:20 1026 30.3 855 25.25 17.9 64.2 42 4.8 40.7
08:25 1026 30.3 855 25.25 18.4 65.2 40 4.6 40.2
08:30 1026 30.3 855 25.25 18.4 65.1 40 4.6 40.2
08:35 1026 30.3 855 25.25 18.3 65 41 4.8 40.7
08:40 1026 30.3 855 25.25 17.4 63.2 42 4.5 40
08:45 1026 30.3 855 25.25 17.4 63.3 41 4.3 39.7
08:50 1026 30.3 855 25.25 17.7 63.8 42 4.6 40.3
08:55 1026 30.3 855 25.25 17.8 64 42 4.8 40.6
09:00 1026 30.3 855 25.25 17.8 64 41 4.5 40.1
09:05 1026 30.3 855 25.25 18.4 65.1 38 3.9 39
09:10 1026 30.3 855 25.25 18.7 65.6 38 4.2 39.6
09:15 1026 30.3 855 25.25 18.8 65.9 37 3.8 38.9
09:20 1026 30.3 855 25.25 18.5 65.4 39 4.3 39.7
09:25 1026 30.3 855 25.25 18.3 64.9 40 4.4 39.9
09:30 1026 30.3 855 25.25 19 66.2 37 4.3 39.8
09:35 1026 30.3 855 25.25 18.7 65.7 39 4.7 40.5
09:40 1026 30.3 855 25.25 19.3 66.7 36 4.1 39.4
09:45 1026 30.3 855 25.25 19.7 67.4 36 4.2 39.6
09:50 1026 30.3 855 25.25 20 68 36 4.6 40.3
09:55 1026 30.3 855 25.25 18.9 65.9 37 4.1 39.4
10:00 1026 30.3 855 25.25 19.8 67.6 36 4.4 40
10:05 1026 30.3 855 25.25 20.1 68.1 35 4.5 40.1
10:10 1026 30.3 855 25.25 20 68 34 3.8 38.8
10:15 1026 30.3 855 25.25 20.3 68.5 35 4.4 39.8
10:20 1026 30.3 855 25.25 20.5 68.8 34 4.1 39.4
10:25 1026 30.3 855 25.25 21 69.8 32 3.8 38.8
10:30 1026 30.3 855 25.25 21.4 70.6 32 4.1 39.3
10:35 1026 30.3 855 25.25 21.8 71.3 33 4.8 40.7
10:40 1026 30.3 855 25.25 21.3 70.3 33 4.5 40.1
10:45 1026 30.3 855 25.25 21.5 70.7 32 4.4 39.9
10:50 1026 30.3 855 25.25 21.2 70.2 32 4 39.1
10:55 1026 30.3 855 25.25 21.7 71.1 31 4.2 39.6
11:00 1026 30.3 855 25.25 22.6 72.6 29 3.9 39.1
11:05 1026 30.3 855 25.25 23 73.4 29 4.3 39.7
11:10 1026 30.3 855 25.25 22.9 73.1 30 4.5 40
11:15 1026 30.3 855 25.25 23.1 73.6 29 4.4 39.8
11:20 1026 30.3 855 25.25 23.8 74.9 29 5.2 41.3
11:25 1026 30.3 855 25.25 24.5 76 27 4.6 40.4
11:30 1026 30.3 855 25.25 24.5 76.1 27 4.7 40.5
11:35 1026 30.3 855 25.25 24.5 76.1 26 4 39.2
11:40 1026 30.3 855 25.25 24.6 76.2 26 4.1 39.4
11:45 1026 30.3 855 25.25 24.2 75.6 28 5 41
11:50 1026 30.3 855 25.25 23.7 74.7 28 4.1 39.4
11:55 1026 30.3 855 25.25 23.7 74.7 26 3.4 38.2
12:00 1026 30.3 855 25.25 23.9 74.9 25 3 37.5
12:05 1026 30.3 855 25.25 24.1 75.3 25 3 37.4
12:10 1026 30.3 855 25.25 24 75.2 25 3 37.4
12:15 1025 30.27 855 25.25 24.1 75.3 25 2.8 37.1
12:20 1025 30.27 855 25.25 24.2 75.6 25 3 37.3
12:25 1025 30.27 855 25.25 24.3 75.7 25 3.2 37.8
12:30 1025 30.27 855 25.25 24.2 75.5 25 3 37.4
12:35 1025 30.27 855 25.25 24.3 75.7 25 3.1 37.6
12:40 1025 30.27 855 25.25 24.3 75.7 24 2.8 37
12:45 1025 30.27 855 25.25 24.3 75.8 24 3 37.3
12:50 1025 30.27 855 25.25 24.6 76.2 24 3.1 37.6
12:55 1025 30.27 854 25.22 24.8 76.7 24 3.1 37.6
13:00 1025 30.27 854 25.22 24.6 76.2 24 2.6 36.8
13:05 1025 30.27 854 25.22 24.5 76 24 2.9 37.2
13:10 1025 30.27 854 25.22 24.7 76.5 23 2.4 36.4
13:15 1025 30.27 854 25.22 25.2 77.4 22 2.5 36.5
13:20 1025 30.27 854 25.22 25.2 77.4 22 2.3 36.2
13:25 1025 30.27 854 25.22 24.9 76.9 23 2.6 36.7
13:30 1025 30.27 854 25.22 24.9 76.9 23 2.7 36.8
13:35 1025 30.27 854 25.22 24.9 76.9 23 2.8 37
13:40 1025 30.27 854 25.22 24.8 76.6 22 2 35.6
13:45 1025 30.27 854 25.22 24.7 76.5 23 2.2 35.9
13:50 1025 30.27 854 25.22 24.9 76.8 23 2.4 36.4
13:55 1025 30.27 854 25.22 25 77.1 22 2.4 36.3
14:00 1025 30.27 854 25.22 25.2 77.3 22 2.5 36.5
14:05 1025 30.27 854 25.22 25.3 77.5 23 3 37.4
14:10 1025 30.27 854 25.22 25.1 77.1 23 2.9 37.2
14:15 1025 30.27 854 25.22 25.1 77.2 24 3.1 37.6
14:20 1025 30.27 854 25.22 25.2 77.3 23 3 37.3
14:25 1025 30.27 854 25.22 25 76.9 23 2.6 36.7
14:30 1025 30.27 854 25.22 25.1 77.1 23 2.6 36.7
14:35 1025 30.27 854 25.22 25.2 77.4 23 2.7 36.9
14:40 1025 30.27 854 25.22 25.1 77.2 24 3.1 37.7
14:45 1025 30.27 854 25.22 25.6 78.1 22 2.6 36.6
14:50 1025 30.27 854 25.22 25.4 77.6 22 2.1 35.8
14:55 1025 30.27 854 25.22 25.3 77.5 22 2.5 36.4
15:00 1025 30.27 854 25.22 25.3 77.5 22 2.4 36.3
15:05 1025 30.27 854 25.22 25.2 77.3 22 2.4 36.2
15:10 1025 30.27 854 25.22 25.2 77.4 22 2.6 36.6
15:15 1025 30.27 854 25.22 25.1 77.1 22 2.2 36
15:20 1025 30.27 854 25.22 25.1 77.1 22 2.1 35.8
15:25 1025 30.27 854 25.22 25.1 77.2 22 1.9 35.4
15:30 1025 30.27 854 25.22 25.1 77.2 23 2.8 37.1
15:35 1025 30.27 854 25.22 25.3 77.5 22 2.6 36.7
15:40 1025 30.27 854 25.22 25.1 77.1 23 2.5 36.4
15:45 1025 30.27 854 25.22 25.1 77.3 22 2.5 36.5
15:50 1025 30.27 854 25.22 25.1 77.3 24 3.1 37.6
15:55 1025 30.27 854 25.22 25.3 77.5 22 2.6 36.7
16:00 1025 30.27 854 25.22 25 77 23 2.7 36.9
16:05 1025 30.27 854 25.22 24.7 76.4 24 2.7 36.9
16:10 1025 30.27 854 25.22 24.7 76.5 24 2.8 37
16:15 1025 30.27 854 25.22 24.9 76.8 24 3 37.4
16:20 1025 30.27 854 25.22 24.4 76 25 3.4 38.2
16:25 1025 30.27 854 25.22 24.2 75.6 25 3.1 37.5
16:30 1025 30.27 854 25.22 24 75.3 25 3.1 37.5
16:35 1025 30.27 854 25.22 24.3 75.7 26 3.6 38.4
16:40 1025 30.27 854 25.22 24.3 75.7 25 3.5 38.3
16:45 1025 30.27 854 25.22 24.3 75.8 26 3.6 38.5
16:50 1025 30.27 854 25.22 24.2 75.5 25 3.4 38.1
16:55 1025 30.27 854 25.22 24.2 75.5 25 3.4 38.1
17:00 1025 30.27 854 25.22 24.2 75.5 25 3.3 38
17:05 1025 30.27 854 25.22 23.9 75.1 26 3.3 37.9
17:10 1025 30.27 854 25.22 23.9 75 26 3.5 38.3
17:15 1025 30.27 854 25.22 23.9 75 26 3.6 38.5
17:20 1025 30.27 854 25.22 23.7 74.7 26 3.6 38.4
17:25 1025 30.27 854 25.22 23.6 74.5 27 3.5 38.3
17:30 1025 30.27 854 25.22 23.5 74.3 27 3.5 38.2
17:35 1025 30.27 854 25.22 23.5 74.2 27 3.7 38.6
17:40 1025 30.27 854 25.22 23.4 74.1 28 3.9 39.1
17:45 1025 30.27 854 25.22 23.3 73.9 27 3.7 38.6
17:50 1025 30.27 854 25.22 23.2 73.7 27 3.5 38.4
17:55 1025 30.27 854 25.22 23.1 73.5 28 3.6 38.6
18:00 1025 30.27 854 25.22 23 73.4 28 3.6 38.5
18:05 1025 30.27 854 25.22 22.9 73.3 28 3.8 38.9
18:10 1025 30.27 854 25.22 22.8 73 29 4 39.1
18:15 1025 30.27 854 25.22 22.6 72.7 29 3.8 38.8
18:20 1025 30.27 854 25.22 22.5 72.5 29 3.9 39
18:25 1025 30.27 854 25.22 22.4 72.4 29 3.9 39
18:30 1025 30.27 854 25.22 22.3 72.1 30 3.9 39.1
18:35 1025 30.27 854 25.22 22.2 72 30 4 39.2
18:40 1025 30.27 854 25.22 22.1 71.8 30 4.1 39.4
18:45 1025 30.27 854 25.22 21.9 71.5 31 4.1 39.4
18:50 1025 30.27 854 25.22 21.8 71.3 31 4.3 39.7
18:55 1025 30.27 854 25.22 21.8 71.2 32 4.4 39.9
19:00 1025 30.27 854 25.22 21.6 70.9 32 4.5 40.1
19:05 1025 30.27 854 25.22 21.4 70.5 33 4.5 40
19:10 1025 30.27 854 25.22 21.3 70.4 33 4.6 40.2
19:15 1025 30.27 854 25.22 21.2 70.1 33 4.7 40.4
19:20 1025 30.27 854 25.22 21.2 70.1 33 4.6 40.4
19:25 1025 30.27 854 25.22 21.1 69.9 34 4.8 40.6
19:30 1025 30.27 854 25.22 21 69.7 34 4.9 40.8
19:35 1025 30.27 854 25.22 20.9 69.5 35 5.1 41.2
19:40 1025 30.27 854 25.22 20.7 69.3 36 5.3 41.5
19:45 1025 30.27 854 25.22 20.6 69.2 36 5.3 41.6
19:50 1025 30.27 854 25.22 20.6 69.1 37 5.5 41.8
19:55 1025 30.27 854 25.22 20.5 69 38 5.7 42.3
20:00 1025 30.27 854 25.22 20.5 68.9 38 5.8 42.4
20:05 1025 30.27 854 25.22 20.5 68.8 38 5.9 42.7
20:10 1025 30.27 855 25.25 20.4 68.6 39 6.2 43.2
20:15 1025 30.27 855 25.25 20.2 68.3 40 6.3 43.3
20:20 1025 30.27 855 25.25 20.1 68.1 40 6.4 43.5
20:25 1025 30.27 855 25.25 20 68 41 6.6 43.8
20:30 1025 30.27 854 25.22 19.9 67.9 41 6.6 43.9
20:35 1025 30.27 854 25.22 19.9 67.8 42 6.7 44.1
20:40 1025 30.27 854 25.22 19.8 67.7 42 6.7 44.1
20:45 1025 30.27 854 25.22 19.7 67.5 43 6.9 44.4
20:50 1025 30.27 854 25.22 19.6 67.2 43 6.8 44.3
20:55 1025 30.27 854 25.22 19.6 67.2 43 6.7 44.1
21:00 1025 30.27 854 25.22 19.6 67.3 43 6.7 44.1
21:05 1025 30.27 855 25.25 19.6 67.3 43 6.8 44.3
21:10 1025 30.27 855 25.25 19.5 67.1 43 6.9 44.4
21:15 1025 30.27 855 25.25 19.4 66.9 44 6.9 44.4
21:20 1025 30.27 855 25.25 19.2 66.6 44 6.8 44.3
21:25 1025 30.27 855 25.25 19.2 66.5 44 6.8 44.3
21:30 1025 30.27 855 25.25 19.1 66.4 44 6.8 44.2
21:35 1025 30.27 855 25.25 19.1 66.3 44 6.8 44.2
21:40 1025 30.27 855 25.25 19 66.2 44 6.7 44.1
21:45 1025 30.27 855 25.25 18.9 66.1 45 6.7 44.1
21:50 1026 30.3 855 25.25 18.9 66 45 6.8 44.3
21:55 1026 30.3 855 25.25 18.7 65.6 46 6.9 44.4
22:00 1026 30.3 855 25.25 18.5 65.3 46 6.9 44.4
22:05 1026 30.3 855 25.25 18.5 65.2 46 6.6 44
22:10 1026 30.3 855 25.25 18.4 65.2 46 6.8 44.2
22:15 1026 30.3 855 25.25 18.4 65.2 46 6.6 43.9
22:20 1026 30.3 855 25.25 18.4 65.1 46 6.7 44
22:25 1026 30.3 855 25.25 18.3 65 46 6.7 44.1
22:30 1026 30.3 855 25.25 18.2 64.7 47 6.9 44.4
22:35 1026 30.3 855 25.25 18 64.3 48 6.8 44.2
22:40 1026 30.3 855 25.25 18 64.3 48 6.8 44.2
22:45 1026 30.3 855 25.25 17.9 64.2 48 6.8 44.2
22:50 1026 30.3 855 25.25 17.8 64.1 48 6.9 44.4
22:55 1026 30.3 855 25.25 17.7 63.8 49 6.9 44.4
23:00 1026 30.3 855 25.25 17.5 63.6 49 6.9 44.5
23:05 1026 30.3 855 25.25 17.5 63.5 49 6.9 44.4
23:10 1026 30.3 855 25.25 17.3 63.2 50 7 44.6
23:15 1026 30.3 855 25.25 17.2 62.9 50 6.9 44.4
23:20 1026 30.3 855 25.25 17.2 62.9 50 6.8 44.3
23:25 1026 30.3 855 25.25 17.1 62.8 51 6.9 44.4
23:30 1026 30.3 855 25.25 17 62.6 51 6.8 44.3
23:35 1026 30.3 855 25.25 16.9 62.4 51 6.9 44.4
23:40 1026 30.3 855 25.25 16.8 62.3 51 6.7 44
23:45 1026 30.3 855 25.25 16.8 62.2 51 6.8 44.2
23:50 1026 30.3 855 25.25 16.8 62.2 51 6.6 43.9
23:55 1026 30.3 855 25.25 16.8 62.3 51 6.7 44.1
24:00 1026 30.3 855 25.25 16.7 62.1 51 6.7 44